To NAV CANADA Home Page Login to a new session Search on AWWS site Feedback and Comments Disclaimer Vers la page française équivalente Tips FAQ What's new on the site To the Forecasts and Observations / NOTAM section To "File a Flight Plan" website Publications and other links Update of the User's profile FIC Telephone Numbers My Weather Data Folder Route Weather Data Regional Weather Data Local Weather Data To the Forecasts and Observations / NOTAM section
Request Generated 03/28/2017 at 02:20:52 UTC . Weather information available at that time is displayed.

METAR/TAF

COMOX/BC    

METAR CYQQ 280200Z 17008KT 20SM FEW041 FEW080 BKN110 BKN240 10/04 A3005 RMK SC1AC1AS6CI0 SLP176=
METAR CYQQ 280100Z 15014KT 20SM FEW041 FEW085 BKN110 BKN240 10/04 A3004 RMK SC2AC1AS5CI0 SLP173=
METAR CYQQ 280000Z 16014G19KT 20SM FEW047 BKN120 BKN240 10/04 A3003 RMK SC2AS5CI0 SH DIST S VIRGA N SLP171=

TAF CYQQ 272339Z 2800/2824 14015KT P6SM SCT030 BKN100 TEMPO 2807/2812
P6SM -RA BKN030 OVC050
FM281200 14020G30KT P6SM -RA SCT012 OVC025 TEMPO 2812/2824 5SM
-RA BR FEW008 BKN012 OVC025
RMK NXT FCST BY 280600Z=
Your time UTC time
Weather data provided by Environment Canada and NAV CANADA